Time;durP1;ratioP1;P1;durP2;ratioP2;P2;SDS_P1;SDS_P2;PMS_P1;PMS_P2;Temp;Humidity;BMP_temperature;BMP_pressure;BME280_temperature;BME280_humidity;BME280_pressure;Samples;Min_cycle;Max_cycle;Signal;HPM_P1;HPM_P2
2024/03/21 00:00:15;;;;;;;8.90;6.00;;;;;;;19.13;50.33;101877.50;4951084;28;20145;-67
2024/03/21 00:02:52;;;;;;;8.35;5.43;;;;;;;19.07;50.28;101877.94;4946274;28;20045;-67
2024/03/21 00:05:17;;;;;;;7.50;5.35;;;;;;;19.14;50.35;101889.78;4958546;28;20540;-67
2024/03/21 00:07:46;;;;;;;6.63;5.10;;;;;;;19.14;50.29;101893.25;4951061;28;20138;-67
2024/03/21 00:10:19;;;;;;;8.18;5.50;;;;;;;19.17;50.34;101905.44;4942518;28;20035;-67
2024/03/21 00:12:44;;;;;;;6.90;5.20;;;;;;;19.15;50.42;101907.31;4948753;28;20042;-67
2024/03/21 00:15:10;;;;;;;7.85;5.72;;;;;;;18.99;50.32;101881.09;4952652;28;20451;-67
2024/03/21 00:17:36;;;;;;;7.97;5.22;;;;;;;19.14;50.14;101916.19;4954701;28;20477;-67
2024/03/21 00:20:05;;;;;;;7.32;5.57;;;;;;;19.00;50.35;101888.91;4950139;28;20042;-67
2024/03/21 00:22:30;;;;;;;7.03;5.68;;;;;;;19.01;50.30;101893.25;4948899;28;20050;-66
2024/03/21 00:24:55;;;;;;;8.65;5.45;;;;;;;19.00;50.14;101890.72;4942356;28;20043;-67
2024/03/21 00:27:21;;;;;;;8.27;5.55;;;;;;;19.00;50.30;101896.00;4949454;28;20050;-69
2024/03/21 00:29:49;;;;;;;7.90;5.43;;;;;;;19.07;50.21;101901.72;4948623;28;20043;-67
2024/03/21 00:32:15;;;;;;;7.93;5.50;;;;;;;19.11;50.29;101917.25;4958747;28;20350;-66
2024/03/21 00:34:40;;;;;;;7.28;5.65;;;;;;;19.04;50.57;101908.03;4964245;28;20971;-69
2024/03/21 00:37:06;;;;;;;9.32;5.90;;;;;;;19.09;50.34;101918.28;4956360;28;20241;-67
2024/03/21 00:39:31;;;;;;;7.97;5.32;;;;;;;18.97;50.20;101901.50;4955557;28;20038;-68
2024/03/21 00:41:57;;;;;;;8.23;5.55;;;;;;;18.97;50.15;101899.69;4954870;28;20118;-67
2024/03/21 00:44:22;;;;;;;8.18;5.88;;;;;;;18.99;50.44;101911.03;4954583;28;20473;-67
2024/03/21 00:46:48;;;;;;;8.38;5.80;;;;;;;19.03;50.20;101917.75;4951413;28;20154;-66
2024/03/21 00:49:15;;;;;;;7.38;5.55;;;;;;;18.95;50.34;101914.81;4956570;28;20038;-67
2024/03/21 00:51:40;;;;;;;9.07;5.85;;;;;;;19.02;49.94;101926.63;4959035;28;20035;-68
2024/03/21 00:54:07;;;;;;;7.25;6.05;;;;;;;19.02;50.45;101926.63;4957298;28;20045;-67
2024/03/21 00:56:32;;;;;;;9.05;5.68;;;;;;;18.91;50.19;101912.47;4958134;28;20042;-67
2024/03/21 00:58:58;;;;;;;9.02;5.97;;;;;;;19.06;50.21;101939.63;4958703;28;20034;-66
2024/03/21 01:01:25;;;;;;;8.15;6.00;;;;;;;18.92;50.13;101919.47;4956154;28;20035;-67
2024/03/21 01:03:50;;;;;;;7.85;5.65;;;;;;;19.01;50.23;101929.41;4949892;28;20126;-67
2024/03/21 01:06:15;;;;;;;8.23;6.05;;;;;;;19.02;50.08;101931.06;4958339;28;20034;-67
2024/03/21 01:08:42;;;;;;;8.38;6.38;;;;;;;18.93;50.03;101922.00;4952349;28;20528;-67
2024/03/21 01:11:08;;;;;;;8.38;5.47;;;;;;;18.96;50.14;101923.56;4951894;28;20038;-67
2024/03/21 01:13:34;;;;;;;9.85;5.95;;;;;;;19.03;49.88;101938.06;4956216;28;20039;-67
2024/03/21 01:15:59;;;;;;;7.70;6.07;;;;;;;19.02;49.94;101939.00;4952086;28;20050;-68
2024/03/21 01:18:34;;;;;;;9.20;5.72;;;;;;;19.01;50.06;101939.97;4956440;28;20031;-67
2024/03/21 01:21:01;;;;;;;7.47;5.75;;;;;;;18.90;50.10;101923.97;4948682;28;20130;-67
2024/03/21 01:23:26;;;;;;;7.93;6.30;;;;;;;18.85;50.07;101925.16;4952320;28;20114;-67
2024/03/21 01:25:51;;;;;;;7.35;5.82;;;;;;;18.87;50.04;101922.41;4940472;28;20473;-67
2024/03/21 01:28:16;;;;;;;7.60;5.60;;;;;;;18.96;49.94;101931.50;4957682;28;20034;-67
2024/03/21 01:30:42;;;;;;;7.75;5.95;;;;;;;18.95;49.92;101940.38;4953824;28;20734;-67
2024/03/21 01:33:07;;;;;;;7.85;5.80;;;;;;;18.85;50.09;101926.97;4946567;28;20035;-67
2024/03/21 01:35:32;;;;;;;7.65;5.85;;;;;;;18.82;49.98;101930.59;4953412;28;20028;-68
2024/03/21 01:37:58;;;;;;;8.20;5.80;;;;;;;18.91;49.90;101947.66;4951423;28;20085;-67
2024/03/21 01:40:23;;;;;;;9.27;6.20;;;;;;;18.75;49.93;101926.66;4941417;28;20551;-67
2024/03/21 01:42:50;;;;;;;7.47;5.53;;;;;;;18.95;50.01;101965.00;4957399;28;20045;-67
2024/03/21 01:45:17;;;;;;;8.77;5.47;;;;;;;18.87;50.04;101943.53;4946688;28;20142;-67
2024/03/21 01:47:42;;;;;;;8.07;5.93;;;;;;;18.79;49.96;101922.88;4945728;28;20065;-67
2024/03/21 01:50:08;;;;;;;7.35;5.70;;;;;;;18.90;49.79;101939.81;4947338;28;20919;-68
2024/03/21 01:52:35;;;;;;;8.75;5.88;;;;;;;18.87;50.11;101943.53;4949511;28;20386;-68
2024/03/21 01:55:01;;;;;;;7.80;5.72;;;;;;;18.80;50.17;101931.66;4956030;28;20061;-69
2024/03/21 01:57:27;;;;;;;8.65;5.50;;;;;;;18.84;50.24;101930.53;4942758;28;20044;-67
2024/03/21 01:59:56;;;;;;;7.93;5.97;;;;;;;18.88;49.66;101950.50;4953164;28;20062;-67
2024/03/21 02:02:23;;;;;;;8.45;5.38;;;;;;;18.84;50.15;101941.09;4950016;28;20066;-67
2024/03/21 02:04:48;;;;;;;8.73;5.88;;;;;;;18.82;49.91;101943.81;4940856;28;20085;-67
2024/03/21 02:07:16;;;;;;;7.50;5.63;;;;;;;18.88;49.87;101942.56;4940158;28;20478;-68
2024/03/21 02:09:41;;;;;;;9.10;6.05;;;;;;;18.77;49.96;101924.78;4959528;28;20030;-67
2024/03/21 02:12:08;;;;;;;8.20;5.65;;;;;;;18.89;49.93;101935.50;4959355;28;20043;-67
2024/03/21 02:14:38;;;;;;;8.10;5.30;;;;;;;18.90;50.06;101940.69;4958260;28;20043;-68
2024/03/21 02:17:04;;;;;;;6.93;5.38;;;;;;;18.76;49.92;101914.34;4959272;28;20111;-67
2024/03/21 02:19:30;;;;;;;7.50;5.55;;;;;;;18.68;49.93;101909.56;4958518;28;20166;-67
2024/03/21 02:24:39;;;;;;;8.05;5.10;;;;;;;18.78;49.83;101929.09;4953231;28;20045;-67
2024/03/21 02:27:04;;;;;;;8.82;5.57;;;;;;;18.85;49.68;101943.63;4959071;28;20122;-68
2024/03/21 02:29:30;;;;;;;7.43;5.00;;;;;;;18.81;49.91;101920.97;4958952;28;20126;-67
2024/03/21 02:31:56;;;;;;;9.20;5.32;;;;;;;18.81;49.87;101922.78;4953751;28;20034;-68
2024/03/21 02:34:21;;;;;;;7.45;5.53;;;;;;;18.79;49.72;101920.25;4963318;28;20030;-67
2024/03/21 02:36:46;;;;;;;7.97;5.25;;;;;;;18.82;49.88;101924.50;4960121;28;20035;-67
2024/03/21 02:39:12;;;;;;;8.05;5.93;;;;;;;18.78;49.71;101936.19;4957358;28;20971;-67
2024/03/21 02:41:37;;;;;;;8.52;5.30;;;;;;;18.78;49.78;101929.09;4957173;28;20055;-68
2024/03/21 02:44:02;;;;;;;7.07;5.50;;;;;;;18.73;49.83;101933.84;4943718;28;20259;-68
2024/03/21 02:46:28;;;;;;;7.35;4.85;;;;;;;18.78;49.77;101942.31;4944067;28;20042;-67
2024/03/21 02:48:53;;;;;;;7.65;5.50;;;;;;;18.70;49.69;101944.63;4943224;28;20071;-68
2024/03/21 02:51:18;;;;;;;7.95;5.30;;;;;;;18.69;49.83;101948.19;4944218;28;20469;-67
2024/03/21 02:53:44;;;;;;;8.57;5.57;;;;;;;18.73;49.71;101952.34;4944986;28;20039;-67
2024/03/21 02:56:09;;;;;;;8.07;5.55;;;;;;;18.66;49.52;101937.88;4957879;28;20433;-68
2024/03/21 02:58:34;;;;;;;9.10;5.47;;;;;;;18.77;49.62;101961.75;4943913;28;20404;-67
2024/03/21 03:01:00;;;;;;;7.85;5.32;;;;;;;18.77;49.63;101969.69;4963015;28;20046;-68
2024/03/21 03:03:25;;;;;;;7.85;5.00;;;;;;;18.77;49.37;101969.69;4944009;28;20031;-68
2024/03/21 03:05:50;;;;;;;7.25;5.38;;;;;;;18.66;49.51;101953.72;4943750;28;20039;-67
2024/03/21 03:08:16;;;;;;;7.87;4.80;;;;;;;18.72;49.38;101971.75;4943500;28;20465;-67
2024/03/21 03:10:41;;;;;;;7.78;5.32;;;;;;;18.73;49.45;101967.34;4957195;28;20429;-68
2024/03/21 03:13:06;;;;;;;8.98;5.25;;;;;;;18.64;49.37;101952.94;4953661;28;20571;-68
2024/03/21 03:15:32;;;;;;;7.30;4.20;;;;;;;18.62;49.26;101946.94;4943523;28;20042;-68
2024/03/21 03:17:57;;;;;;;6.90;4.85;;;;;;;18.63;49.38;101953.91;4948934;28;20028;-68
2024/03/21 03:20:22;;;;;;;7.28;5.32;;;;;;;18.76;49.35;101983.84;4954790;28;20655;-67
2024/03/21 03:22:48;;;;;;;6.53;4.65;;;;;;;18.76;49.30;101997.03;4947075;28;20107;-68
2024/03/21 03:25:13;;;;;;;7.32;4.85;;;;;;;18.64;49.25;101972.28;4957410;28;20030;-67
2024/03/21 03:27:38;;;;;;;6.80;4.60;;;;;;;18.74;49.37;101987.50;4953301;28;20035;-67
2024/03/21 03:30:04;;;;;;;6.55;4.47;;;;;;;18.57;49.31;101965.72;4954750;28;20038;-67
2024/03/21 03:32:32;;;;;;;6.25;4.38;;;;;;;18.70;49.09;101988.69;4960062;28;20027;-67
2024/03/21 03:37:42;;;;;;;8.73;4.75;;;;;;;18.64;49.16;101987.28;4946748;28;20093;-67
2024/03/21 03:40:09;;;;;;;6.97;4.63;;;;;;;18.62;49.09;101987.38;4962875;28;20039;-67
2024/03/21 03:42:35;;;;;;;6.50;4.60;;;;;;;18.65;48.94;102003.00;4966047;28;20058;-67
2024/03/21 03:45:00;;;;;;;6.88;4.35;;;;;;;18.67;49.06;101995.84;4961606;28;20078;-68
2024/03/21 03:47:25;;;;;;;6.40;4.28;;;;;;;18.60;48.97;101991.06;4962066;28;20054;-68
2024/03/21 03:49:50;;;;;;;5.82;4.03;;;;;;;18.68;48.95;102015.19;4961858;28;20408;-67
2024/03/21 03:52:16;;;;;;;7.18;4.80;;;;;;;18.57;49.03;102009.75;4943632;28;20035;-67
2024/03/21 03:54:41;;;;;;;6.72;4.65;;;;;;;18.59;48.79;102013.97;4950872;28;20904;-67
2024/03/21 03:57:07;;;;;;;6.55;4.45;;;;;;;18.58;48.73;102022.00;4944496;28;20042;-67
2024/03/21 03:59:32;;;;;;;6.70;3.90;;;;;;;18.57;48.96;102022.97;4965704;28;20125;-67
2024/03/21 04:01:57;;;;;;;7.03;4.18;;;;;;;18.52;48.82;102025.03;4957546;28;20031;-68
2024/03/21 04:04:23;;;;;;;6.50;4.18;;;;;;;18.46;48.96;102015.72;4943169;28;20539;-67
2024/03/21 04:06:48;;;;;;;6.47;4.05;;;;;;;18.62;48.84;102047.25;4941964;28;20046;-67
2024/03/21 04:09:13;;;;;;;6.75;4.00;;;;;;;18.62;48.67;102050.75;4959667;28;20045;-68
2024/03/21 04:11:39;;;;;;;5.88;4.00;;;;;;;18.62;48.79;102056.03;4950845;28;20051;-68
2024/03/21 04:14:04;;;;;;;6.97;4.15;;;;;;;18.60;48.93;102059.72;4942072;28;20598;-67
2024/03/21 04:16:29;;;;;;;6.20;3.90;;;;;;;18.52;48.92;102040.84;4945307;28;20045;-67
2024/03/21 04:18:55;;;;;;;6.22;3.88;;;;;;;18.56;48.85;102043.22;4961301;28;20460;-68
2024/03/21 04:21:20;;;;;;;6.85;4.57;;;;;;;18.61;48.77;102054.34;4960653;28;20039;-67
2024/03/21 04:23:45;;;;;;;6.35;4.18;;;;;;;18.57;48.89;102046.72;4945349;28;20039;-68
2024/03/21 04:26:10;;;;;;;7.05;4.30;;;;;;;18.62;48.90;102052.53;4942068;28;20035;-67
2024/03/21 04:28:36;;;;;;;6.22;4.00;;;;;;;18.48;48.49;102033.16;4941410;28;20073;-67
2024/03/21 04:33:36;;;;;;;6.85;4.05;;;;;;;18.53;48.91;102050.47;1421038;26;20058;-74
2024/03/21 04:36:03;;;;;;;8.18;4.72;;;;;;;18.58;49.13;102062.47;4968123;28;20034;-75
2024/03/21 04:38:28;;;;;;;7.05;4.00;;;;;;;18.47;48.78;102043.81;4968892;28;20533;-72
2024/03/21 04:40:53;;;;;;;7.43;4.80;;;;;;;18.60;49.16;102072.91;4968642;28;20031;-73
2024/03/21 04:43:19;;;;;;;5.78;4.28;;;;;;;18.50;49.10;102067.38;4968552;28;20065;-72
2024/03/21 04:45:44;;;;;;;5.70;3.90;;;;;;;18.48;48.93;102069.25;4968520;28;20031;-73
2024/03/21 04:48:09;;;;;;;7.10;4.68;;;;;;;18.46;49.02;102068.50;4968437;28;20300;-73
2024/03/21 04:50:34;;;;;;;8.15;4.60;;;;;;;18.47;48.68;102070.22;4968481;28;20406;-72
2024/03/21 04:53:00;;;;;;;6.43;4.07;;;;;;;18.52;48.89;102080.47;4968333;28;20034;-73
2024/03/21 04:55:26;;;;;;;7.00;4.80;;;;;;;18.54;48.71;102095.28;4968580;28;20531;-72
2024/03/21 04:57:51;;;;;;;6.53;4.47;;;;;;;18.46;48.73;102076.44;4968350;28;20292;-73
2024/03/21 05:00:17;;;;;;;8.57;4.80;;;;;;;18.52;48.81;102098.94;4968218;28;20117;-72
2024/03/21 05:02:42;;;;;;;6.95;4.57;;;;;;;18.56;48.92;102109.22;4965493;28;20496;-72
2024/03/21 05:05:09;;;;;;;7.45;4.80;;;;;;;18.45;48.90;102091.44;4968387;28;20073;-73
2024/03/21 05:07:34;;;;;;;9.32;4.78;;;;;;;18.52;48.90;102107.72;4968055;28;20045;-74
2024/03/21 05:10:00;;;;;;;7.57;4.57;;;;;;;18.54;48.81;102118.19;4968159;28;20031;-73
2024/03/21 05:12:27;;;;;;;6.25;4.38;;;;;;;18.53;48.99;102105.94;4968342;28;20038;-75
2024/03/21 05:14:52;;;;;;;7.05;4.60;;;;;;;18.52;48.96;102110.38;4967989;28;20031;-73
2024/03/21 05:17:19;;;;;;;6.15;4.22;;;;;;;18.52;48.86;102118.28;4967936;28;20117;-71
2024/03/21 05:19:45;;;;;;;6.93;4.22;;;;;;;18.53;48.74;102134.97;4967639;28;20038;-72
2024/03/21 05:22:10;;;;;;;7.03;4.32;;;;;;;18.45;49.08;102133.66;4968106;28;20390;-74
2024/03/21 05:24:36;;;;;;;5.97;3.95;;;;;;;18.52;48.88;102149.09;4967568;28;20383;-72
2024/03/21 05:27:02;;;;;;;5.93;3.95;;;;;;;18.52;49.02;102149.09;4967847;28;20031;-74
2024/03/21 05:29:31;;;;;;;6.18;3.55;;;;;;;18.54;48.80;102148.06;4966238;28;20109;-72
2024/03/21 05:31:57;;;;;;;6.45;3.85;;;;;;;18.50;48.90;102149.22;4967880;28;20026;-72
2024/03/21 05:34:23;;;;;;;5.80;3.38;;;;;;;18.52;49.00;102162.28;4967287;28;20053;-72
2024/03/21 05:36:48;;;;;;;6.38;3.20;;;;;;;18.40;48.85;102143.63;4967840;28;20038;-72
2024/03/21 05:39:13;;;;;;;5.03;2.90;;;;;;;18.40;49.00;102146.28;4968037;28;20422;-73
2024/03/21 05:41:39;;;;;;;5.73;2.60;;;;;;;18.48;48.88;102164.28;4967734;28;20031;-72
2024/03/21 05:44:05;;;;;;;6.00;2.88;;;;;;;18.41;48.76;102155.91;4967498;28;20865;-73
2024/03/21 05:46:30;;;;;;;6.10;2.60;;;;;;;18.44;48.82;102171.56;4967649;28;20037;-72
2024/03/21 05:48:56;;;;;;;4.88;2.55;;;;;;;18.38;48.70;102153.44;4967430;28;20046;-73
2024/03/21 05:51:22;;;;;;;3.97;2.20;;;;;;;18.51;48.71;102179.09;4967957;28;20045;-73
2024/03/21 05:53:47;;;;;;;4.75;2.30;;;;;;;18.46;48.86;102182.84;4966952;28;20034;-72
2024/03/21 05:56:15;;;;;;;3.95;2.22;;;;;;;18.48;48.78;102182.75;4967654;28;20105;-72
2024/03/21 05:58:40;;;;;;;3.88;2.05;;;;;;;18.45;48.71;102190.88;4968740;28;20027;-71
2024/03/21 06:03:37;;;;;;;4.32;2.22;;;;;;;18.41;48.85;102182.31;4969433;28;20081;-72
2024/03/21 06:06:02;;;;;;;4.13;2.10;;;;;;;18.47;48.59;102199.56;4970902;28;20066;-71
2024/03/21 06:08:28;;;;;;;3.53;1.90;;;;;;;18.14;48.53;102150.53;4971245;28;20049;-73
2024/03/21 06:10:53;;;;;;;3.92;1.92;;;;;;;18.41;48.55;102195.50;4970970;28;20061;-73
2024/03/21 06:13:20;;;;;;;5.03;2.13;;;;;;;18.45;48.55;102201.44;4971149;28;20390;-72
2024/03/21 06:15:45;;;;;;;4.57;2.13;;;;;;;18.34;48.69;102188.91;4971410;28;20424;-73
2024/03/21 06:18:10;;;;;;;4.40;2.10;;;;;;;18.44;48.54;102210.31;4971443;28;20101;-72
2024/03/21 06:20:36;;;;;;;3.83;2.10;;;;;;;18.40;48.38;102212.25;4971194;28;20023;-73
2024/03/21 06:23:01;;;;;;;3.95;2.30;;;;;;;18.36;48.44;102208.13;4971192;28;20288;-72
2024/03/21 06:25:27;;;;;;;4.03;2.10;;;;;;;18.33;48.68;102202.19;4970813;28;20023;-72
2024/03/21 06:27:52;;;;;;;3.55;1.92;;;;;;;18.45;48.57;102226.06;4970946;28;20027;-72
2024/03/21 06:30:18;;;;;;;4.47;2.20;;;;;;;18.40;48.28;102222.81;4970371;28;20042;-72
2024/03/21 06:32:44;;;;;;;3.90;1.92;;;;;;;18.39;48.39;102236.13;4970636;28;20109;-72
2024/03/21 06:35:10;;;;;;;5.65;2.38;;;;;;;18.41;48.40;102240.38;4969183;28;20055;-72
2024/03/21 06:37:36;;;;;;;3.67;2.00;;;;;;;18.44;48.61;102248.09;4970996;28;20117;-71
2024/03/21 06:40:06;;;;;;;4.00;1.80;;;;;;;18.45;48.41;102255.09;4971085;28;20118;-72
2024/03/21 06:42:32;;;;;;;3.55;1.83;;;;;;;18.35;48.71;102240.75;4970715;28;20122;-71
2024/03/21 06:45:01;;;;;;;4.07;1.95;;;;;;;18.40;48.71;102246.56;4970551;28;20027;-73
2024/03/21 06:47:27;;;;;;;3.90;1.63;;;;;;;18.40;48.61;102256.28;4971089;28;20023;-72
2024/03/21 06:49:56;;;;;;;3.30;1.80;;;;;;;18.48;48.60;102264.59;4970774;28;20074;-72
2024/03/21 06:52:22;;;;;;;4.13;1.85;;;;;;;18.38;48.57;102243.19;4970826;28;20026;-73
2024/03/21 06:54:48;;;;;;;3.13;1.52;;;;;;;18.46;48.36;102256.78;4970458;28;20029;-73
2024/03/21 06:57:13;;;;;;;3.35;1.63;;;;;;;18.52;48.72;102267.91;4970513;28;20031;-73
2024/03/21 06:59:39;;;;;;;3.22;1.60;;;;;;;18.55;48.81;102273.00;4968783;28;20118;-72
2024/03/21 07:02:05;;;;;;;3.63;1.90;;;;;;;18.56;48.71;102272.91;4968476;28;20073;-72
2024/03/21 07:04:31;;;;;;;2.95;1.70;;;;;;;18.55;48.87;102281.78;4969988;28;20050;-72
2024/03/21 07:06:56;;;;;;;3.35;1.70;;;;;;;18.53;48.67;102277.53;4970137;28;20027;-73
2024/03/21 07:09:21;;;;;;;3.58;1.60;;;;;;;18.58;48.74;102281.59;4967353;28;20042;-74
2024/03/21 07:11:47;;;;;;;3.30;1.70;;;;;;;18.58;48.60;102286.00;4969808;28;20611;-72
2024/03/21 07:14:12;;;;;;;2.88;1.45;;;;;;;18.55;48.83;102288.84;4968110;28;20534;-73
2024/03/21 07:16:38;;;;;;;3.50;1.90;;;;;;;18.57;48.65;102298.38;4969156;28;20045;-73
2024/03/21 07:19:03;;;;;;;3.25;1.70;;;;;;;18.58;48.70;102304.50;4970089;28;20066;-73
2024/03/21 07:21:29;;;;;;;4.22;1.80;;;;;;;18.54;48.69;102306.47;4970636;28;20031;-73
2024/03/21 07:23:54;;;;;;;3.65;1.80;;;;;;;18.48;48.49;102298.91;4969478;28;20494;-72
2024/03/21 07:26:19;;;;;;;4.18;1.98;;;;;;;18.57;48.50;102319.50;4969912;28;20027;-72
2024/03/21 07:28:45;;;;;;;4.03;2.33;;;;;;;18.52;48.41;102311.00;4969297;28;20382;-73
2024/03/21 07:31:10;;;;;;;4.07;2.33;;;;;;;18.62;48.17;102327.13;4969626;28;20027;-74
2024/03/21 07:33:35;;;;;;;4.15;2.17;;;;;;;18.62;48.31;102332.41;4969335;28;20045;-73
2024/03/21 07:36:02;;;;;;;3.83;2.10;;;;;;;18.54;48.41;102318.84;4969781;28;20022;-73
2024/03/21 07:38:27;;;;;;;3.97;2.20;;;;;;;18.66;48.46;102347.16;4969700;28;20514;-73
2024/03/21 07:40:57;;;;;;;3.88;1.80;;;;;;;18.54;48.59;102318.84;4969387;28;20141;-73
2024/03/21 07:43:22;;;;;;;4.00;2.33;;;;;;;18.46;48.67;102314.84;4969517;28;20054;-72
2024/03/21 07:45:48;;;;;;;3.95;2.20;;;;;;;18.64;48.88;102349.88;4969559;28;20455;-72
2024/03/21 07:48:13;;;;;;;4.20;1.90;;;;;;;18.66;48.93;102355.91;4969247;28;21295;-73
2024/03/21 07:50:38;;;;;;;4.07;2.10;;;;;;;18.64;48.92;102349.88;4969333;28;20077;-73
2024/03/21 07:53:05;;;;;;;3.80;1.63;;;;;;;18.67;48.82;102352.34;4969087;28;20054;-73
2024/03/21 07:55:31;;;;;;;3.60;1.90;;;;;;;18.51;48.91;102327.78;4968169;28;20379;-73
2024/03/21 07:57:56;;;;;;;4.00;2.45;;;;;;;18.64;48.94;102355.16;4968069;28;20129;-73
2024/03/21 08:00:21;;;;;;;3.63;1.73;;;;;;;18.72;49.11;102372.31;4969005;28;20069;-74
2024/03/21 08:02:47;;;;;;;3.20;1.65;;;;;;;18.66;49.14;102360.34;4967547;28;20035;-74
2024/03/21 08:05:12;;;;;;;5.32;1.90;;;;;;;18.59;48.92;102346.66;4968789;28;20049;-73
2024/03/21 08:07:37;;;;;;;4.93;1.90;;;;;;;18.68;48.87;102361.09;4969182;28;20031;-74
2024/03/21 08:10:03;;;;;;;3.05;1.50;;;;;;;18.69;49.07;102373.34;4968811;28;20048;-73
2024/03/21 08:12:28;;;;;;;3.90;1.77;;;;;;;18.62;49.11;102364.09;4969157;28;20038;-74
2024/03/21 08:14:53;;;;;;;5.47;1.60;;;;;;;18.63;48.69;102373.75;4969031;28;20033;-73
2024/03/21 08:17:19;;;;;;;3.93;1.90;;;;;;;18.63;49.03;102373.75;4969107;28;20038;-73
2024/03/21 08:19:45;;;;;;;3.20;1.65;;;;;;;18.66;49.13;102377.03;4968463;28;20272;-73
2024/03/21 08:22:10;;;;;;;3.58;1.70;;;;;;;18.70;49.13;102382.13;4968183;28;20359;-74
2024/03/21 08:24:38;;;;;;;3.33;1.60;;;;;;;18.71;49.27;102384.69;4967974;28;20037;-74
2024/03/21 08:27:04;;;;;;;3.13;1.40;;;;;;;18.71;49.27;102386.47;4967003;28;20031;-73
2024/03/21 08:29:29;;;;;;;3.03;1.60;;;;;;;18.66;49.04;102382.31;4968003;28;20038;-73
2024/03/21 08:31:54;;;;;;;3.03;1.48;;;;;;;18.65;49.02;102390.34;4968690;28;20486;-74
2024/03/21 08:34:19;;;;;;;3.63;1.50;;;;;;;18.69;48.94;102394.47;4968557;28;20130;-73
2024/03/21 08:36:45;;;;;;;2.50;1.30;;;;;;;18.72;49.44;102409.31;4968683;28;20271;-73
2024/03/21 08:39:10;;;;;;;2.88;1.40;;;;;;;18.74;49.24;102405.63;4967829;28;20073;-74
2024/03/21 08:41:35;;;;;;;3.80;1.60;;;;;;;18.71;49.29;102399.66;4968540;28;20030;-73
2024/03/21 08:44:01;;;;;;;4.00;1.60;;;;;;;18.73;49.26;102406.56;4968425;28;20998;-67
2024/03/21 08:46:26;;;;;;;3.10;1.20;;;;;;;18.64;49.53;102380.69;4968601;28;20045;-67
2024/03/21 08:48:51;;;;;;;3.13;1.33;;;;;;;18.66;49.24;102394.69;4967810;28;21048;-69
2024/03/21 08:51:16;;;;;;;3.65;1.45;;;;;;;18.75;49.22;102406.47;4968586;28;20035;-68
2024/03/21 08:53:42;;;;;;;3.10;1.33;;;;;;;18.64;49.51;102396.53;4965721;28;20545;-67
2024/03/21 08:56:07;;;;;;;4.63;1.55;;;;;;;18.76;49.65;102418.75;4968460;28;20030;-74
2024/03/21 08:58:33;;;;;;;3.10;1.13;;;;;;;18.63;49.52;102402.78;4968042;28;20665;-68
2024/03/21 09:00:58;;;;;;;3.85;1.40;;;;;;;18.74;49.47;102421.50;4968202;28;20034;-74
2024/03/21 09:03:23;;;;;;;3.63;1.48;;;;;;;18.68;49.57;102421.84;4965548;28;20089;-74
2024/03/21 09:05:49;;;;;;;4.22;1.30;;;;;;;18.64;49.11;102407.97;4965794;28;20027;-73
2024/03/21 09:08:14;;;;;;;3.35;1.40;;;;;;;18.56;49.14;102399.63;4967417;28;20352;-74
2024/03/21 09:10:40;;;;;;;3.33;1.50;;;;;;;18.73;49.12;102427.69;4964917;28;20030;-75
2024/03/21 09:13:05;;;;;;;4.15;1.70;;;;;;;18.67;48.89;102410.44;4965902;28;20481;-75
2024/03/21 09:15:31;;;;;;;4.38;1.60;;;;;;;18.73;48.68;102430.34;4966500;28;20027;-71
2024/03/21 09:17:56;;;;;;;4.15;1.60;;;;;;;18.74;49.18;102423.25;4968062;28;20431;-78
2024/03/21 09:20:23;;;;;;;3.60;1.50;;;;;;;18.66;48.90;102408.72;4963576;28;20042;-74
2024/03/21 09:22:49;;;;;;;4.63;1.30;;;;;;;18.71;48.80;102421.66;4965917;28;20279;-74
2024/03/21 09:25:14;;;;;;;3.63;1.70;;;;;;;18.65;48.80;102406.19;4966854;28;20405;-73
2024/03/21 09:27:39;;;;;;;4.00;1.40;;;;;;;18.76;48.86;102421.41;4968267;28;20050;-72
2024/03/21 09:30:05;;;;;;;4.05;1.85;;;;;;;18.80;48.86;102430.81;4967101;28;20310;-77
2024/03/21 09:32:30;;;;;;;3.90;1.45;;;;;;;18.82;48.82;102423.69;4966653;28;20038;-74
2024/03/21 09:34:56;;;;;;;3.50;1.20;;;;;;;18.81;48.88;102433.38;4964288;28;20062;-73
2024/03/21 09:37:23;;;;;;;3.65;1.27;;;;;;;18.77;48.41;102425.72;4963584;28;20038;-73
2024/03/21 09:39:49;;;;;;;8.88;1.83;;;;;;;18.83;48.48;102426.22;4965617;28;20101;-70
2024/03/21 09:42:20;;;;;;;3.42;1.40;;;;;;;18.75;48.53;102414.41;4967248;28;20061;-73
2024/03/21 09:44:51;;;;;;;5.10;1.27;;;;;;;18.73;48.36;102419.78;4967353;28;21279;-74
2024/03/21 09:47:19;;;;;;;2.63;1.10;;;;;;;18.84;48.47;102441.16;4964476;28;20356;-72
2024/03/21 09:49:48;;;;;;;3.72;1.33;;;;;;;18.79;48.49;102431.78;4963604;28;20515;-75
2024/03/21 09:52:14;;;;;;;3.65;1.30;;;;;;;18.81;48.29;102445.75;4967047;28;20034;-74
2024/03/21 09:54:39;;;;;;;3.63;1.20;;;;;;;18.81;48.30;102451.88;4967168;28;20023;-73
2024/03/21 09:57:08;;;;;;;3.83;1.13;;;;;;;18.86;48.35;102459.56;4967042;28;20031;-74
2024/03/21 09:59:33;;;;;;;3.78;1.00;;;;;;;18.84;48.29;102451.72;4966846;28;20463;-73
2024/03/21 10:01:58;;;;;;;2.42;1.00;;;;;;;18.85;48.29;102465.78;4965566;28;20033;-75
2024/03/21 10:04:24;;;;;;;4.03;1.25;;;;;;;18.77;48.27;102452.13;4966361;28;20029;-74
2024/03/21 10:06:49;;;;;;;4.28;1.20;;;;;;;18.82;48.30;102458.00;4967836;28;20031;-73
2024/03/21 10:09:15;;;;;;;2.90;1.08;;;;;;;18.73;48.37;102442.72;4967048;28;20354;-71
2024/03/21 10:11:43;;;;;;;2.70;1.10;;;;;;;18.88;48.23;102472.66;4966579;28;20018;-73
2024/03/21 10:14:13;;;;;;;3.80;1.10;;;;;;;18.75;48.36;102461.94;4965035;28;20529;-72
2024/03/21 10:16:40;;;;;;;5.00;1.25;;;;;;;18.78;47.58;102470.53;4966029;28;20030;-71
2024/03/21 10:19:07;;;;;;;3.17;1.20;;;;;;;18.78;48.10;102470.53;4966461;28;20031;-73
2024/03/21 10:21:33;;;;;;;6.03;1.27;;;;;;;18.85;47.99;102479.84;4966556;28;20034;-70
2024/03/21 10:24:02;;;;;;;2.22;0.90;;;;;;;18.75;48.31;102472.50;4966131;28;20940;-72
2024/03/21 10:26:28;;;;;;;4.00;1.30;;;;;;;18.77;48.10;102484.69;4966719;28;20030;-72
2024/03/21 10:28:54;;;;;;;4.95;1.20;;;;;;;18.79;48.30;102489.88;4966476;28;20045;-72
2024/03/21 10:31:21;;;;;;;2.65;1.10;;;;;;;18.78;48.16;102493.47;4965943;28;20043;-72
2024/03/21 10:33:47;;;;;;;4.93;1.75;;;;;;;18.74;47.85;102487.50;4967348;28;20169;-72
2024/03/21 10:36:14;;;;;;;4.60;1.42;;;;;;;18.87;48.28;102502.66;4966447;28;20359;-72
2024/03/21 10:38:40;;;;;;;2.72;1.10;;;;;;;18.79;48.13;102501.28;4965691;28;20035;-74
2024/03/21 10:41:18;;;;;;;6.53;1.40;;;;;;;18.77;48.09;102492.63;4966711;28;20031;-72
2024/03/21 10:43:46;;;;;;;2.83;1.00;;;;;;;18.83;48.14;102516.03;4980667;28;20473;-74
2024/03/21 10:46:12;;;;;;;2.10;1.08;;;;;;;18.77;47.86;102500.53;4970182;28;20030;-75
2024/03/21 10:48:40;;;;;;;3.58;1.17;;;;;;;18.90;48.02;102518.31;4969641;28;20365;-71
2024/03/21 10:51:19;;;;;;;4.03;1.20;;;;;;;18.87;48.01;102523.78;4968076;28;20109;-76
2024/03/21 10:53:59;;;;;;;2.90;1.25;;;;;;;18.78;48.12;102510.16;4967513;28;20046;-72
2024/03/21 10:56:24;;;;;;;6.95;1.30;;;;;;;18.92;47.97;102535.81;4969489;28;20035;-73
2024/03/21 10:58:56;;;;;;;3.47;1.50;;;;;;;18.83;47.89;102518.69;4970469;28;20035;-74
2024/03/21 11:01:31;;;;;;;4.68;1.20;;;;;;;18.82;47.72;102518.78;4969766;28;20370;-76
2024/03/21 11:04:02;;;;;;;3.83;1.50;;;;;;;18.82;47.80;102531.97;4968218;28;20143;-74
2024/03/21 11:06:30;;;;;;;3.17;1.30;;;;;;;18.94;47.64;102543.63;4969414;28;20022;-73
2024/03/21 11:08:56;;;;;;;2.60;1.25;;;;;;;18.88;47.98;102531.63;4969222;28;20067;-73
2024/03/21 11:11:22;;;;;;;4.30;1.70;;;;;;;18.85;47.55;102535.31;4969172;28;20070;-75
2024/03/21 11:13:47;;;;;;;3.15;1.67;;;;;;;18.77;47.81;102518.16;4969023;28;20482;-74
2024/03/21 11:16:13;;;;;;;4.10;1.50;;;;;;;18.81;47.88;102522.34;4969575;28;20080;-75
2024/03/21 11:18:40;;;;;;;3.53;1.67;;;;;;;18.83;48.15;102538.94;4966030;28;20046;-76
2024/03/21 11:21:07;;;;;;;4.28;1.80;;;;;;;18.93;48.06;102541.94;4971522;28;20034;-73
2024/03/21 11:23:32;;;;;;;3.25;1.63;;;;;;;18.87;48.01;102537.88;4972025;28;20043;-73
2024/03/21 11:25:58;;;;;;;3.70;1.52;;;;;;;18.80;47.97;102516.22;4972126;28;20033;-72
2024/03/21 11:28:23;;;;;;;4.13;1.90;;;;;;;18.89;48.00;102525.41;4972096;28;20463;-75